Time;durP1;ratioP1;P1;durP2;ratioP2;P2;SDS_P1;SDS_P2;PMS_P1;PMS_P2;Temp;Humidity;BMP_temperature;BMP_pressure;BME280_temperature;BME280_humidity;BME280_pressure;Samples;Min_cycle;Max_cycle;Signal;HPM_P1;HPM_P2
2022/11/03 00:02:00;;;;;;;8.35;3.13;;;;;;;;;;5054959;28;20029;-84
2022/11/03 00:04:26;;;;;;;6.70;2.95;;;;;;;;;;5046654;28;20033;-83
2022/11/03 00:06:53;;;;;;;6.47;2.58;;;;;;;;;;5045796;28;20014;-84
2022/11/03 00:09:20;;;;;;;4.30;2.60;;;;;;;;;;5044876;28;20026;-84
2022/11/03 00:11:47;;;;;;;5.65;2.70;;;;;;;;;;5046249;28;20037;-84
2022/11/03 00:14:16;;;;;;;5.88;3.15;;;;;;;;;;5026549;28;20045;-83
2022/11/03 00:16:42;;;;;;;6.50;3.55;;;;;;;;;;5044559;28;20029;-84
2022/11/03 00:19:09;;;;;;;7.85;3.25;;;;;;;;;;5044312;28;20029;-84
2022/11/03 00:21:35;;;;;;;10.77;3.92;;;;;;;;;;5028035;28;20501;-84
2022/11/03 00:24:02;;;;;;;8.13;3.50;;;;;;;;;;5025321;28;20163;-83
2022/11/03 00:26:29;;;;;;;8.82;3.35;;;;;;;;;;5044160;28;20029;-84
2022/11/03 00:28:56;;;;;;;8.65;3.15;;;;;;;;;;5044548;28;20447;-84
2022/11/03 00:31:32;;;;;;;7.68;3.10;;;;;;;;;;5042552;28;20104;-83
2022/11/03 00:33:59;;;;;;;6.45;3.25;;;;;;;;;;5025285;28;20397;-83
2022/11/03 00:36:29;;;;;;;5.57;3.15;;;;;;;;;;5047312;28;20273;-83
2022/11/03 00:38:56;;;;;;;7.15;2.75;;;;;;;;;;5034603;28;20064;-83
2022/11/03 00:41:22;;;;;;;5.32;3.10;;;;;;;;;;5053394;28;20192;-83
2022/11/03 00:43:49;;;;;;;7.25;3.50;;;;;;;;;;5032611;28;20083;-83
2022/11/03 00:46:16;;;;;;;8.63;3.22;;;;;;;;;;5044462;28;20029;-85
2022/11/03 00:48:42;;;;;;;7.13;3.40;;;;;;;;;;5043474;28;20045;-83
2022/11/03 00:51:13;;;;;;;9.13;3.60;;;;;;;;;;5026616;28;20017;-83
2022/11/03 00:53:50;;;;;;;4.35;3.25;;;;;;;;;;5027242;28;20087;-84
2022/11/03 00:56:21;;;;;;;9.50;3.97;;;;;;;;;;5043904;28;20404;-84
2022/11/03 00:58:47;;;;;;;6.80;3.33;;;;;;;;;;5043727;28;20021;-83
2022/11/03 01:01:15;;;;;;;4.80;3.33;;;;;;;;;;5027814;28;20555;-84
2022/11/03 01:06:48;;;;;;;8.80;3.60;;;;;;;;;;5026163;28;20025;-85
2022/11/03 01:09:14;;;;;;;8.98;2.85;;;;;;;;;;5043324;28;20036;-84
2022/11/03 01:11:43;;;;;;;4.82;3.58;;;;;;;;;;5045288;28;20025;-84
2022/11/03 01:14:13;;;;;;;7.18;2.65;;;;;;;;;;5044415;28;20026;-83
2022/11/03 01:16:39;;;;;;;8.48;4.15;;;;;;;;;;5045529;28;20021;-83
2022/11/03 01:19:05;;;;;;;6.72;3.17;;;;;;;;;;5048075;28;20021;-82
2022/11/03 01:21:31;;;;;;;6.03;3.40;;;;;;;;;;5029481;28;20029;-85
2022/11/03 01:24:00;;;;;;;5.97;3.08;;;;;;;;;;5026962;28;20037;-84
2022/11/03 01:26:26;;;;;;;8.98;2.72;;;;;;;;;;5046036;28;20036;-85
2022/11/03 01:28:53;;;;;;;4.70;2.47;;;;;;;;;;5046020;28;20221;-82
2022/11/03 01:31:20;;;;;;;4.68;2.75;;;;;;;;;;5054716;28;20013;-82
2022/11/03 01:33:46;;;;;;;7.28;3.60;;;;;;;;;;5056422;28;20045;-82
2022/11/03 01:36:14;;;;;;;4.35;3.13;;;;;;;;;;5056170;28;20030;-82
2022/11/03 01:38:40;;;;;;;4.93;3.33;;;;;;;;;;5039145;28;20053;-82
2022/11/03 01:41:08;;;;;;;3.60;2.80;;;;;;;;;;5038759;28;20031;-82
2022/11/03 01:43:34;;;;;;;5.47;4.13;;;;;;;;;;5056290;28;20041;-81
2022/11/03 01:46:08;;;;;;;6.90;3.22;;;;;;;;;;5057004;28;20025;-81
2022/11/03 01:48:35;;;;;;;6.18;3.67;;;;;;;;;;5038573;28;20039;-82
2022/11/03 01:51:02;;;;;;;5.57;3.40;;;;;;;;;;5053739;28;20083;-82
2022/11/03 01:53:28;;;;;;;5.28;3.10;;;;;;;;;;5057152;28;20021;-82
2022/11/03 01:55:54;;;;;;;3.58;3.28;;;;;;;;;;5056868;28;20039;-82
2022/11/03 01:58:23;;;;;;;5.65;3.40;;;;;;;;;;5056504;28;20039;-82
2022/11/03 02:00:51;;;;;;;3.90;2.83;;;;;;;;;;5056282;28;20045;-83
2022/11/03 02:03:17;;;;;;;7.25;2.70;;;;;;;;;;5056091;28;20012;-81
2022/11/03 02:05:45;;;;;;;7.20;3.97;;;;;;;;;;5058664;28;20017;-82
2022/11/03 02:08:23;;;;;;;6.38;3.60;;;;;;;;;;5040686;28;20029;-82
2022/11/03 02:10:50;;;;;;;7.43;3.55;;;;;;;;;;5057572;28;20030;-82
2022/11/03 02:13:20;;;;;;;7.18;3.72;;;;;;;;;;5051518;28;20025;-82
2022/11/03 02:15:50;;;;;;;6.93;3.67;;;;;;;;;;5043015;28;20021;-83
2022/11/03 02:18:21;;;;;;;8.07;3.88;;;;;;;;;;5024237;28;20079;-83
2022/11/03 02:20:51;;;;;;;5.80;3.45;;;;;;;;;;5043071;28;20044;-84
2022/11/03 02:23:17;;;;;;;9.55;3.97;;;;;;;;;;5040288;28;20121;-84
2022/11/03 02:25:43;;;;;;;6.13;3.28;;;;;;;;;;5040071;28;20022;-83
2022/11/03 02:28:10;;;;;;;5.15;3.03;;;;;;;;;;5022285;28;20033;-83
2022/11/03 02:30:42;;;;;;;6.63;3.53;;;;;;;;;;5041259;28;20018;-83
2022/11/03 02:33:11;;;;;;;6.25;3.20;;;;;;;;;;5040724;28;20100;-84
2022/11/03 02:35:37;;;;;;;7.70;3.58;;;;;;;;;;5041420;28;20022;-83
2022/11/03 02:38:06;;;;;;;8.95;4.10;;;;;;;;;;5023809;28;20059;-83
2022/11/03 02:40:37;;;;;;;6.93;3.63;;;;;;;;;;5041944;28;20029;-83
2022/11/03 02:43:04;;;;;;;7.85;3.72;;;;;;;;;;5024230;28;20026;-83
2022/11/03 02:45:30;;;;;;;9.93;4.18;;;;;;;;;;5040210;28;20032;-84
2022/11/03 02:47:59;;;;;;;5.35;3.53;;;;;;;;;;5024177;28;20053;-83
2022/11/03 02:50:29;;;;;;;5.65;3.83;;;;;;;;;;5040744;28;20490;-82
2022/11/03 02:52:56;;;;;;;4.13;3.33;;;;;;;;;;5024979;28;20049;-82
2022/11/03 02:55:22;;;;;;;4.90;3.08;;;;;;;;;;5040720;28;20128;-83
2022/11/03 02:57:57;;;;;;;6.20;3.08;;;;;;;;;;5039889;28;20037;-84
2022/11/03 03:00:24;;;;;;;6.18;3.72;;;;;;;;;;5022549;28;20030;-84
2022/11/03 03:02:54;;;;;;;6.97;3.22;;;;;;;;;;5039846;28;20036;-84
2022/11/03 03:05:23;;;;;;;6.30;3.05;;;;;;;;;;5041842;28;20537;-84
2022/11/03 03:07:52;;;;;;;8.40;3.60;;;;;;;;;;5040652;28;20454;-85
2022/11/03 03:10:21;;;;;;;4.95;3.10;;;;;;;;;;5041211;28;20032;-83
2022/11/03 03:12:48;;;;;;;4.43;3.42;;;;;;;;;;5040924;28;20022;-83
2022/11/03 03:15:16;;;;;;;4.10;3.15;;;;;;;;;;5042760;28;20029;-82
2022/11/03 03:17:53;;;;;;;3.38;2.53;;;;;;;;;;5024713;28;20025;-83
2022/11/03 03:20:32;;;;;;;4.18;2.70;;;;;;;;;;5041494;28;20032;-83
2022/11/03 03:23:00;;;;;;;5.88;2.53;;;;;;;;;;5043130;28;20148;-82
2022/11/03 03:25:29;;;;;;;3.97;3.03;;;;;;;;;;5042664;28;20017;-83
2022/11/03 03:28:00;;;;;;;3.92;2.80;;;;;;;;;;5043654;28;20175;-82
2022/11/03 03:30:27;;;;;;;6.40;3.10;;;;;;;;;;5055323;28;20736;-83
2022/11/03 03:32:54;;;;;;;5.40;3.28;;;;;;;;;;5062363;28;20025;-84
2022/11/03 03:35:23;;;;;;;7.25;4.05;;;;;;;;;;5061924;28;20036;-83
2022/11/03 03:37:51;;;;;;;6.90;4.15;;;;;;;;;;5044725;28;20032;-84
2022/11/03 03:40:20;;;;;;;12.90;4.93;;;;;;;;;;5051739;28;20769;-83
2022/11/03 03:42:47;;;;;;;6.20;4.05;;;;;;;;;;5023768;28;20478;-82
2022/11/03 03:45:14;;;;;;;7.50;4.07;;;;;;;;;;5043117;28;20080;-83
2022/11/03 03:47:40;;;;;;;8.60;3.95;;;;;;;;;;5040253;28;20018;-84
2022/11/03 03:50:06;;;;;;;10.95;3.90;;;;;;;;;;5023031;28;20051;-83
2022/11/03 03:52:33;;;;;;;5.25;3.15;;;;;;;;;;5023234;28;20047;-83
2022/11/03 03:55:00;;;;;;;4.88;3.55;;;;;;;;;;5039666;28;20026;-84
2022/11/03 03:57:27;;;;;;;5.38;4.00;;;;;;;;;;5036256;28;20030;-83
2022/11/03 03:59:53;;;;;;;7.75;4.00;;;;;;;;;;5036102;28;20056;-84
2022/11/03 04:02:19;;;;;;;3.75;3.08;;;;;;;;;;5023527;28;20025;-84
2022/11/03 04:04:45;;;;;;;5.18;3.33;;;;;;;;;;5016452;28;20037;-83
2022/11/03 04:09:56;;;;;;;5.45;3.60;;;;;;;;;;5046606;28;20105;-82
2022/11/03 04:23:26;;;;;;;5.18;3.50;;;;;;;;;;5020357;28;20033;-83
2022/11/03 04:25:54;;;;;;;6.88;3.17;;;;;;;;;;5025057;28;20022;-82
2022/11/03 04:28:20;;;;;;;4.68;3.05;;;;;;;;;;5024073;28;20049;-85
2022/11/03 04:30:46;;;;;;;6.88;3.88;;;;;;;;;;5027328;28;20045;-84
2022/11/03 04:33:21;;;;;;;5.68;3.45;;;;;;;;;;5024077;28;20040;-85
2022/11/03 04:35:48;;;;;;;5.63;2.85;;;;;;;;;;5043924;28;20022;-85
2022/11/03 04:38:14;;;;;;;5.18;3.67;;;;;;;;;;5047274;28;20041;-84
2022/11/03 04:40:44;;;;;;;8.65;5.03;;;;;;;;;;5025700;28;20351;-85
2022/11/03 04:43:13;;;;;;;8.90;5.63;;;;;;;;;;5045879;28;20017;-85
2022/11/03 04:45:39;;;;;;;8.10;5.25;;;;;;;;;;5025849;28;20041;-84
2022/11/03 04:48:25;;;;;;;9.88;6.18;;;;;;;;;;5046631;28;20116;-85
2022/11/03 04:50:53;;;;;;;7.60;5.18;;;;;;;;;;5024350;28;20026;-86
2022/11/03 04:53:20;;;;;;;10.00;6.25;;;;;;;;;;5041564;28;20060;-85
2022/11/03 04:55:47;;;;;;;10.68;7.80;;;;;;;;;;5043321;28;20029;-86
2022/11/03 04:58:40;;;;;;;13.25;8.15;;;;;;;;;;5043527;28;20040;-86
2022/11/03 05:01:10;;;;;;;9.75;7.00;;;;;;;;;;5041226;28;20037;-87
2022/11/03 05:03:37;;;;;;;10.77;6.70;;;6.70;99.90;;;;;;5029392;28;20653;-86
2022/11/03 05:06:18;;;;;;;8.88;6.22;;;6.60;99.90;;;;;;5030651;28;20029;-86
2022/11/03 05:08:51;;;;;;;10.00;7.05;;;6.50;99.90;;;;;;5031868;28;20044;-83
2022/11/03 05:11:29;;;;;;;;;;;6.50;99.90;;;;;;5045902;28;20026;-83
2022/11/03 05:14:00;;;;;;;10.50;7.20;;;6.40;99.90;;;;;;5029258;28;19905;-83
2022/11/03 05:16:26;;;;;;;10.10;7.63;;;6.40;99.90;;;;;;5028994;28;20028;-83
2022/11/03 05:18:52;;;;;;;9.90;7.20;;;6.50;99.90;;;;;;5046049;28;20041;-83
2022/11/03 05:21:21;;;;;;;12.55;8.85;;;6.50;99.90;;;;;;5041761;28;20022;-84
2022/11/03 05:23:57;;;;;;;15.07;9.18;;;6.50;99.90;;;;;;5022673;28;20033;-84
2022/11/03 05:26:28;;;;;;;11.63;8.30;;;6.60;99.90;;;;;;5040533;28;20026;-85
2022/11/03 05:28:59;;;;;;;11.03;8.10;;;6.60;99.90;;;;;;5042717;28;20030;-84
2022/11/03 05:31:34;;;;;;;9.23;7.20;;;6.60;99.90;;;;;;5042102;28;20260;-84
2022/11/03 05:34:03;;;;;;;8.98;6.80;;;6.60;99.90;;;;;;5045083;28;20018;-84
2022/11/03 05:36:30;;;;;;;8.10;6.18;;;6.70;99.90;;;;;;5025235;28;20017;-85
2022/11/03 05:39:16;;;;;;;8.02;6.07;;;6.70;99.90;;;;;;5024930;28;20033;-85
2022/11/03 05:41:42;;;;;;;7.90;6.22;;;6.70;99.90;;;;;;5037560;28;20610;-85
2022/11/03 05:44:25;;;;;;;10.38;6.72;;;6.70;99.90;;;;;;5023173;28;20029;-82
2022/11/03 05:46:51;;;;;;;8.82;6.18;;;6.70;99.90;;;;;;5042282;28;20017;-85
2022/11/03 05:49:17;;;;;;;7.53;5.68;;;6.60;99.90;;;;;;5021990;28;20085;-83
2022/11/03 05:51:44;;;;;;;6.95;5.60;;;6.60;99.90;;;;;;5022497;28;20064;-83
2022/11/03 05:54:32;;;;;;;5.45;4.90;;;6.60;99.90;;;;;;5043569;28;20032;-83
2022/11/03 05:56:57;;;;;;;8.20;5.50;;;6.60;99.90;;;;;;5043118;28;20041;-84
2022/11/03 05:59:26;;;;;;;8.95;5.60;;;6.60;99.90;;;;;;5040468;28;20021;-84
2022/11/03 06:01:54;;;;;;;8.80;6.03;;;6.60;99.90;;;;;;5040954;28;20020;-83
2022/11/03 06:04:31;;;;;;;9.57;6.05;;;6.60;99.90;;;;;;5041642;28;20418;-82
2022/11/03 06:07:29;;;;;;;8.75;6.20;;;6.70;99.90;;;;;;5023201;28;20379;-83
2022/11/03 06:09:55;;;;;;;10.10;6.28;;;6.70;99.90;;;;;;5022710;28;20552;-83
2022/11/03 06:12:22;;;;;;;10.95;7.15;;;6.70;99.90;;;;;;5048227;28;20042;-83
2022/11/03 06:14:48;;;;;;;8.45;6.38;;;6.70;99.90;;;;;;5033155;28;20029;-82
2022/11/03 06:17:26;;;;;;;7.97;6.75;;;6.70;99.90;;;;;;5051722;28;20033;-82
2022/11/03 06:19:54;;;;;;;9.85;7.63;;;6.70;99.90;;;;;;5051871;28;20052;-82
2022/11/03 06:22:28;;;;;;;7.50;6.38;;;6.70;99.90;;;;;;5052864;28;20018;-83
2022/11/03 06:25:19;;;;;;;8.57;6.88;;;6.70;99.90;;;;;;5034166;28;20085;-82
2022/11/03 06:27:44;;;;;;;12.30;6.93;;;6.70;99.90;;;;;;5043692;28;20029;-82
2022/11/03 06:30:27;;;;;;;7.90;6.93;;;6.70;99.90;;;;;;5053193;28;20093;-83
2022/11/03 06:32:56;;;;;;;6.55;5.35;;;6.70;99.90;;;;;;5034229;28;20036;-82
2022/11/03 06:35:22;;;;;;;9.07;6.10;;;6.80;99.90;;;;;;5027083;28;20022;-84
2022/11/03 06:37:49;;;;;;;6.25;5.05;;;6.80;99.90;;;;;;5040000;28;20018;-84
2022/11/03 06:40:14;;;;;;;10.80;5.85;;;6.90;99.90;;;;;;5048370;28;20025;-84
2022/11/03 06:42:40;;;;;;;10.23;6.75;;;6.90;99.90;;;;;;5031258;28;20048;-83
2022/11/03 06:45:32;;;;;;;7.45;5.60;;;6.90;99.90;;;;;;5050582;28;20025;-84
2022/11/03 06:47:58;;;;;;;8.10;5.55;;;7.00;99.90;;;;;;5025750;28;20057;-85
2022/11/03 06:50:30;;;;;;;9.15;5.97;;;7.00;99.90;;;;;;5036176;28;20045;-80
2022/11/03 06:52:57;;;;;;;8.20;4.95;;;7.10;99.90;;;;;;5045649;28;20053;-81
2022/11/03 06:55:30;;;;;;;5.65;5.00;;;7.20;99.90;;;;;;5027478;28;20089;-81
2022/11/03 06:58:16;;;;;;;4.85;4.30;;;7.20;99.90;;;;;;5046243;28;20013;-82
2022/11/03 07:00:42;;;;;;;5.22;3.97;;;7.30;99.90;;;;;;5045657;28;20402;-83
2022/11/03 07:03:14;;;;;;;8.55;4.80;;;7.30;99.90;;;;;;5046701;28;20030;-82
2022/11/03 07:05:40;;;;;;;5.90;4.13;;;7.30;99.90;;;;;;5045805;28;20025;-81
2022/11/03 07:08:30;;;;;;;5.00;4.00;;;7.20;99.90;;;;;;5043786;28;20022;-80
2022/11/03 07:11:16;;;;;;;5.50;3.78;;;7.30;99.90;;;;;;5033857;28;20037;-81
2022/11/03 07:13:42;;;;;;;4.63;3.58;;;7.30;99.90;;;;;;5025536;28;20028;-83
2022/11/03 07:16:33;;;;;;;4.35;3.38;;;7.30;99.90;;;;;;5043406;28;20035;-82
2022/11/03 07:19:00;;;;;;;5.50;4.65;;;7.30;99.90;;;;;;5029399;28;20033;-82
2022/11/03 07:21:47;;;;;;;7.97;4.65;;;7.40;99.90;;;;;;5033038;28;20034;-84
2022/11/03 07:24:21;;;;;;;6.07;4.18;;;7.40;99.90;;;;;;5056062;28;20026;-83
2022/11/03 07:26:47;;;;;;;6.28;3.97;;;7.40;99.90;;;;;;5055782;28;20077;-83
2022/11/03 07:29:20;;;;;;;8.20;5.50;;;7.50;99.90;;;;;;5056211;28;20022;-83
2022/11/03 07:31:47;;;;;;;9.07;4.88;;;7.50;99.90;;;;;;5031197;28;20084;-82
2022/11/03 07:34:19;;;;;;;5.90;4.13;;;7.50;99.90;;;;;;5044740;28;20087;-83
2022/11/03 07:36:45;;;;;;;10.65;5.13;;;7.60;99.90;;;;;;5026590;28;20032;-82
2022/11/03 07:39:16;;;;;;;6.32;5.13;;;7.80;99.90;;;;;;5043668;28;20490;-81
2022/11/03 07:41:42;;;;;;;9.32;4.80;;;8.20;99.90;;;;;;5042868;28;20033;-83
2022/11/03 07:44:14;;;;;;;7.07;4.80;;;8.60;99.90;;;;;;5044987;28;20092;-81
2022/11/03 07:46:42;;;;;;;6.57;4.32;;;8.70;99.90;;;;;;5024438;28;20022;-82
2022/11/03 07:49:23;;;;;;;5.85;4.40;;;8.60;99.90;;;;;;5026870;28;20040;-83
2022/11/03 07:51:49;;;;;;;6.03;3.40;;;8.60;99.90;;;;;;5042884;28;20022;-82
2022/11/03 07:54:19;;;;;;;4.18;3.25;;;9.10;99.90;;;;;;5024820;28;20041;-84
2022/11/03 07:56:48;;;;;;;4.07;2.88;;;10.10;99.90;;;;;;5024146;28;20021;-83
2022/11/03 07:59:36;;;;;;;2.92;2.55;;;11.30;99.90;;;;;;5045466;28;20541;-83
2022/11/03 08:02:29;;;;;;;2.63;2.15;;;11.60;98.30;;;;;;5042093;28;20030;-82
2022/11/03 08:04:55;;;;;;;2.85;2.42;;;11.20;97.20;;;;;;5024377;28;20030;-83
2022/11/03 08:07:20;;;;;;;5.55;2.47;;;10.70;97.30;;;;;;5023595;28;20037;-84
2022/11/03 08:09:46;;;;;;;5.22;3.20;;;10.40;97.90;;;;;;5044096;28;20021;-82
2022/11/03 08:12:12;;;;;;;4.72;3.28;;;10.20;98.50;;;;;;5029336;28;20028;-83
2022/11/03 08:14:37;;;;;;;5.90;3.67;;;10.00;99.10;;;;;;5045858;28;20026;-85
2022/11/03 08:17:04;;;;;;;9.50;4.38;;;9.80;99.40;;;;;;5044496;28;20021;-85
2022/11/03 08:19:29;;;;;;;6.15;3.40;;;9.80;99.70;;;;;;5046296;28;20092;-85
2022/11/03 08:21:56;;;;;;;8.40;4.85;;;9.60;99.70;;;;;;5044767;28;20041;-83
2022/11/03 08:24:22;;;;;;;5.47;4.20;;;9.50;99.90;;;;;;5027292;28;20076;-83
2022/11/03 08:26:47;;;;;;;6.75;4.60;;;9.50;99.90;;;;;;5050150;28;20034;-84
2022/11/03 08:29:13;;;;;;;8.05;4.20;;;9.40;99.90;;;;;;5049265;28;20039;-83
2022/11/03 08:31:39;;;;;;;4.55;3.50;;;9.40;99.90;;;;;;5049097;28;20056;-83
2022/11/03 08:34:05;;;;;;;4.85;3.60;;;9.60;99.90;;;;;;5029897;28;20044;-82
2022/11/03 08:36:30;;;;;;;5.18;4.35;;;9.70;99.90;;;;;;5047854;28;20018;-85
2022/11/03 08:38:56;;;;;;;7.22;2.97;;;9.90;99.90;;;;;;5049498;28;20033;-83
2022/11/03 08:41:21;;;;;;;4.65;3.05;;;10.10;99.90;;;;;;5021410;28;20174;-83
2022/11/03 08:43:47;;;;;;;5.38;2.88;;;10.30;99.70;;;;;;5030922;28;20039;-84
2022/11/03 08:46:13;;;;;;;7.75;2.90;;;10.50;99.20;;;;;;5030187;28;20035;-84
2022/11/03 08:48:39;;;;;;;3.20;2.47;;;10.70;98.80;;;;;;5048609;28;20036;-82
2022/11/03 08:51:06;;;;;;;3.88;2.58;;;10.90;98.50;;;;;;5031652;28;20027;-83
2022/11/03 08:53:33;;;;;;;3.22;2.55;;;11.10;98.20;;;;;;5029957;28;20025;-83
2022/11/03 08:55:58;;;;;;;5.20;2.50;;;11.40;97.60;;;;;;5046037;28;20017;-83
2022/11/03 08:58:24;;;;;;;3.60;2.80;;;11.50;97.00;;;;;;5044922;28;20078;-84
2022/11/03 09:00:50;;;;;;;4.72;2.53;;;11.70;96.40;;;;;;5048042;28;20085;-83
2022/11/03 09:03:16;;;;;;;3.25;2.55;;;11.70;96.00;;;;;;5044122;28;20022;-82
2022/11/03 09:05:42;;;;;;;6.80;3.35;;;11.80;95.70;;;;;;5044694;28;20203;-83
2022/11/03 09:08:08;;;;;;;7.13;3.80;;;11.90;95.20;;;;;;5030739;28;20037;-84
2022/11/03 09:10:34;;;;;;;4.82;2.90;;;11.90;95.00;;;;;;5031291;28;20079;-83
2022/11/03 09:12:59;;;;;;;3.75;3.08;;;12.00;95.00;;;;;;5032540;28;20022;-84
2022/11/03 09:15:25;;;;;;;4.30;2.83;;;12.20;94.70;;;;;;5049209;28;20029;-83
2022/11/03 09:17:51;;;;;;;4.50;2.85;;;12.50;94.50;;;;;;5047779;28;20025;-85
2022/11/03 09:20:17;;;;;;;3.38;3.03;;;12.90;93.60;;;;;;5031943;28;20089;-82
2022/11/03 09:22:42;;;;;;;5.20;3.55;;;13.40;92.80;;;;;;5055089;28;20013;-83
2022/11/03 09:25:09;;;;;;;4.90;3.70;;;13.70;91.70;;;;;;5049980;28;20418;-81
2022/11/03 09:27:34;;;;;;;5.25;3.42;;;13.50;91.10;;;;;;5039214;28;20010;-83
2022/11/03 09:30:01;;;;;;;5.72;4.20;;;13.60;90.80;;;;;;5058616;28;20055;-82
2022/11/03 09:32:26;;;;;;;7.07;3.95;;;13.60;90.60;;;;;;5057771;28;20022;-82
2022/11/03 09:34:52;;;;;;;3.85;2.75;;;13.50;90.30;;;;;;5032851;28;20029;-83
2022/11/03 09:37:17;;;;;;;3.90;3.25;;;13.40;90.90;;;;;;5042935;28;20021;-83
2022/11/03 09:39:43;;;;;;;6.07;3.10;;;13.50;90.80;;;;;;5043936;28;20044;-83
2022/11/03 09:42:12;;;;;;;3.88;2.95;;;13.60;90.80;;;;;;5028479;28;20029;-85
2022/11/03 09:44:38;;;;;;;5.43;3.03;;;13.70;90.90;;;;;;5047753;28;20021;-83
2022/11/03 09:47:04;;;;;;;7.32;3.47;;;13.90;90.50;;;;;;5043807;28;20068;-83
2022/11/03 09:49:32;;;;;;;5.00;3.78;;;13.80;90.30;;;;;;5043858;28;20060;-83
2022/11/03 09:51:59;;;;;;;13.02;4.65;;;13.60;90.40;;;;;;5027552;28;20421;-83
2022/11/03 09:54:26;;;;;;;8.00;3.60;;;13.60;90.40;;;;;;5043927;28;20410;-83
2022/11/03 09:56:52;;;;;;;6.80;3.72;;;13.50;90.20;;;;;;5044628;28;20021;-81
2022/11/03 09:59:22;;;;;;;8.63;3.88;;;13.40;90.50;;;;;;5047897;28;20081;-84
2022/11/03 10:01:52;;;;;;;7.28;4.10;;;13.50;90.70;;;;;;5027143;28;20040;-83
2022/11/03 10:04:28;;;;;;;5.63;3.72;;;13.70;90.80;;;;;;5045016;28;20032;-83
2022/11/03 10:06:55;;;;;;;3.45;2.53;;;13.90;90.50;;;;;;5026622;28;20033;-83
2022/11/03 10:09:22;;;;;;;7.95;3.83;;;14.00;90.10;;;;;;5043502;28;20029;-82
2022/11/03 10:11:50;;;;;;;6.50;4.15;;;14.00;89.30;;;;;;5025569;28;20018;-82
2022/11/03 10:14:17;;;;;;;5.93;2.78;;;13.90;89.70;;;;;;5046654;28;20125;-82
2022/11/03 10:16:44;;;;;;;4.40;2.70;;;13.90;90.00;;;;;;5042270;28;20030;-81
2022/11/03 10:19:13;;;;;;;3.85;2.80;;;14.00;90.10;;;;;;5042683;28;20029;-83
2022/11/03 10:21:41;;;;;;;5.07;3.65;;;14.10;89.70;;;;;;5043197;28;20434;-82
2022/11/03 10:24:12;;;;;;;5.95;3.65;;;14.10;89.20;;;;;;5025797;28;20022;-84
2022/11/03 10:26:49;;;;;;;8.13;3.53;;;13.90;88.90;;;;;;5041465;28;20017;-84
2022/11/03 10:29:21;;;;;;;5.55;3.60;;;13.90;89.50;;;;;;5025918;28;20053;-83
2022/11/03 10:31:50;;;;;;;5.28;3.45;;;13.90;89.60;;;;;;5042021;28;20386;-83
2022/11/03 10:34:36;;;;;;;4.57;2.85;;;13.90;89.50;;;;;;5042187;28;20428;-82
2022/11/03 10:37:16;;;;;;;3.28;2.67;;;14.10;90.00;;;;;;5041068;28;20491;-85
2022/11/03 10:39:45;;;;;;;6.35;3.63;;;14.40;88.90;;;;;;5023961;28;20029;-84
2022/11/03 10:42:21;;;;;;;7.03;2.92;;;14.60;87.40;;;;;;5042047;28;20083;-85
2022/11/03 10:44:53;;;;;;;8.60;3.70;;;14.60;86.90;;;;;;5025058;28;20112;-85
2022/11/03 10:48:11;;;;;;;9.73;3.35;;;14.60;86.40;;;;;;5025921;28;20048;-85
2022/11/03 10:50:40;;;;;;;5.88;2.97;;;14.50;86.50;;;;;;5025452;28;20045;-86
2022/11/03 10:53:19;;;;;;;5.75;2.50;;;14.40;86.80;;;;;;5042316;28;20395;-86
2022/11/03 10:55:44;;;;;;;8.45;3.58;;;14.40;87.10;;;;;;5044609;28;20049;-86
2022/11/03 10:58:10;;;;;;;4.80;2.85;;;14.20;87.00;;;;;;5043277;28;20021;-86
2022/11/03 11:00:38;;;;;;;5.55;2.92;;;14.20;87.80;;;;;;5044039;28;20390;-85
2022/11/03 11:03:05;;;;;;;5.57;2.35;;;14.30;87.50;;;;;;5024838;28;20022;-84
2022/11/03 11:05:31;;;;;;;6.93;3.47;;;14.30;88.00;;;;;;5042485;28;20406;-85
2022/11/03 11:07:58;;;;;;;12.82;3.30;;;14.30;87.50;;;;;;5041873;28;20052;-85
2022/11/03 11:10:26;;;;;;;10.10;3.05;;;14.40;86.80;;;;;;5043777;28;20063;-86
2022/11/03 11:13:21;;;;;;;4.00;2.22;;;14.40;86.80;;;;;;5024208;28;20052;-85
2022/11/03 11:15:49;;;;;;;4.15;2.20;;;14.40;87.00;;;;;;5043328;28;20044;-85
2022/11/03 11:18:27;;;;;;;4.78;2.85;;;14.50;86.20;;;;;;5023003;28;20124;-84
2022/11/03 11:21:01;;;;;;;2.63;2.25;;;14.60;85.40;;;;;;5024327;28;20040;-86
2022/11/03 11:23:30;;;;;;;8.52;4.05;;;14.80;86.00;;;;;;5042319;28;20029;-85
2022/11/03 11:26:08;;;;;;;4.60;3.67;;;15.00;87.00;;;;;;5040794;28;20143;-84
2022/11/03 11:29:07;;;;;;;7.07;3.47;;;14.90;88.30;;;;;;5025148;28;20125;-83
2022/11/03 11:31:39;;;;;;;4.32;3.30;;;14.70;90.00;;;;;;5024586;28;20025;-85
2022/11/03 11:34:20;;;;;;;6.60;4.22;;;14.60;90.70;;;;;;5042093;28;20025;-85
2022/11/03 11:36:54;;;;;;;5.95;4.00;;;14.50;90.50;;;;;;5026316;28;20108;-84
2022/11/03 11:39:23;;;;;;;5.47;3.63;;;14.40;90.80;;;;;;5041318;28;20079;-85
2022/11/03 11:42:13;;;;;;;8.25;3.63;;;14.30;91.20;;;;;;5022166;28;20040;-84
2022/11/03 11:44:44;;;;;;;6.28;3.25;;;14.30;91.30;;;;;;5040777;28;20064;-84
2022/11/03 11:47:31;;;;;;;5.50;3.40;;;14.30;91.40;;;;;;5042161;28;20087;-85
2022/11/03 11:50:09;;;;;;;5.65;3.40;;;14.30;91.20;;;;;;5026538;28;20021;-86
2022/11/03 11:52:43;;;;;;;7.63;4.38;;;14.30;91.60;;;;;;5030160;28;20021;-84
2022/11/03 11:55:38;;;;;;;5.22;3.38;;;14.40;91.30;;;;;;5053795;28;20033;-86
2022/11/03 11:58:12;;;;;;;7.85;4.10;;;14.30;91.30;;;;;;5045557;28;20095;-85
2022/11/03 12:00:53;;;;;;;6.45;3.70;;;14.30;90.90;;;;;;5032736;28;20103;-84
2022/11/03 12:03:42;;;;;;;4.45;3.35;;;14.30;91.20;;;;;;5047256;28;20029;-83
2022/11/03 12:06:11;;;;;;;5.97;4.00;;;14.30;91.40;;;;;;5027477;28;20041;-83
2022/11/03 12:08:36;;;;;;;7.22;4.38;;;14.30;91.10;;;;;;5047067;28;20056;-83
2022/11/03 12:11:10;;;;;;;7.25;4.32;;;14.30;91.10;;;;;;5045697;28;20104;-84
2022/11/03 12:13:46;;;;;;;7.18;4.30;;;14.30;91.20;;;;;;5026093;28;20048;-86
2022/11/03 12:16:30;;;;;;;4.43;3.35;;;14.30;91.30;;;;;;5043025;28;20042;-84
2022/11/03 12:19:07;;;;;;;6.22;3.30;;;14.50;91.40;;;;;;5045065;28;20081;-84
2022/11/03 12:21:54;;;;;;;8.07;4.32;;;14.70;90.80;;;;;;5045222;28;20026;-83
2022/11/03 12:24:32;;;;;;;6.82;3.58;;;14.80;89.90;;;;;;5031089;28;20257;-84
2022/11/03 12:26:59;;;;;;;4.88;3.50;;;14.90;90.00;;;;;;5038604;28;20110;-87
2022/11/03 12:29:25;;;;;;;8.38;3.83;;;15.00;90.00;;;;;;5056297;28;20030;-85
2022/11/03 12:31:51;;;;;;;5.57;3.50;;;15.10;88.80;;;;;;5055652;28;20101;-86
2022/11/03 12:34:18;;;;;;;5.65;3.97;;;15.10;88.70;;;;;;5055271;28;20009;-85
2022/11/03 12:36:44;;;;;;;4.78;3.65;;;15.10;88.50;;;;;;5031745;28;20098;-84
2022/11/03 12:39:11;;;;;;;5.80;3.60;;;15.20;88.80;;;;;;5044015;28;20244;-85
2022/11/03 12:41:36;;;;;;;6.32;3.65;;;15.20;88.30;;;;;;5043285;28;20056;-85
2022/11/03 12:44:03;;;;;;;6.25;3.65;;;15.10;88.30;;;;;;5025684;28;20085;-85
2022/11/03 12:46:29;;;;;;;7.85;4.70;;;14.90;89.40;;;;;;5027170;28;20025;-84
2022/11/03 12:48:55;;;;;;;7.53;4.38;;;14.80;89.90;;;;;;5030269;28;20033;-83
2022/11/03 12:51:23;;;;;;;7.38;4.18;;;14.60;90.50;;;;;;5029125;28;20029;-83
2022/11/03 12:53:49;;;;;;;9.02;5.10;;;14.40;91.20;;;;;;5031028;28;20038;-83
2022/11/03 12:56:16;;;;;;;8.20;4.45;;;14.30;91.50;;;;;;5040211;28;20043;-86
2022/11/03 12:58:42;;;;;;;8.45;4.45;;;14.20;92.00;;;;;;5042049;28;20037;-87
2022/11/03 13:01:07;;;;;;;5.93;4.63;;;14.20;92.30;;;;;;5059663;28;20068;-85
2022/11/03 13:03:34;;;;;;;9.27;4.65;;;14.20;92.60;;;;;;5042010;28;20017;-86
2022/11/03 13:06:03;;;;;;;5.88;4.45;;;14.30;92.70;;;;;;5058656;28;20121;-86
2022/11/03 13:08:29;;;;;;;6.60;5.40;;;14.30;92.80;;;;;;5041424;28;20026;-87
2022/11/03 13:10:55;;;;;;;8.35;5.03;;;14.30;92.50;;;;;;5042119;28;20049;-86
2022/11/03 13:13:21;;;;;;;8.15;4.80;;;14.30;92.80;;;;;;5059432;28;20046;-87
2022/11/03 13:15:47;;;;;;;9.13;5.15;;;14.30;93.00;;;;;;5059225;28;20029;-87
2022/11/03 13:18:12;;;;;;;13.23;5.65;;;14.30;92.80;;;;;;5035243;28;20026;-85
2022/11/03 13:20:38;;;;;;;9.77;5.07;;;14.20;92.80;;;;;;5031278;28;20025;-85
2022/11/03 13:23:04;;;;;;;8.32;5.50;;;14.20;93.10;;;;;;5030420;28;20104;-85
2022/11/03 13:25:30;;;;;;;10.20;5.07;;;14.10;93.20;;;;;;5033693;28;20026;-85
2022/11/03 13:27:56;;;;;;;7.82;5.55;;;14.00;93.70;;;;;;5031911;28;20032;-84
2022/11/03 13:30:23;;;;;;;9.57;5.72;;;13.90;94.00;;;;;;5049456;28;20052;-85
2022/11/03 13:32:49;;;;;;;9.88;5.63;;;13.80;94.30;;;;;;5032866;28;20513;-84
2022/11/03 13:35:15;;;;;;;7.65;6.35;;;13.80;94.60;;;;;;5051825;28;20089;-87
2022/11/03 13:37:42;;;;;;;8.40;6.57;;;13.70;94.80;;;;;;5041376;28;20029;-86
2022/11/03 13:40:16;;;;;;;7.50;5.78;;;13.70;94.70;;;;;;5041239;28;20028;-86
2022/11/03 13:42:42;;;;;;;8.00;6.25;;;13.60;95.20;;;;;;5040557;28;20018;-87
2022/11/03 13:45:08;;;;;;;6.32;5.45;;;13.60;95.60;;;;;;5034533;28;20036;-82
2022/11/03 13:47:35;;;;;;;6.38;5.00;;;13.60;95.70;;;;;;5027523;28;20025;-85
2022/11/03 13:50:00;;;;;;;10.32;5.85;;;13.50;95.80;;;;;;5026494;28;20026;-86
2022/11/03 13:52:27;;;;;;;5.15;4.65;;;13.40;95.50;;;;;;5043757;28;20395;-85
2022/11/03 13:54:53;;;;;;;8.70;5.55;;;13.30;95.70;;;;;;5028039;28;20052;-84
2022/11/03 13:57:20;;;;;;;9.63;6.93;;;13.30;95.70;;;;;;5045883;28;20099;-84